Time,TemperatureF,DewpointF,PressureIn,WindDirection,WindDirectionDegrees,WindSpeedMPH,WindSpeedGustMPH,Humidity,HourlyPrecipIn,Conditions,Clouds,dailyrainin,SoftwareType,DateUTC
2013-04-15 00:00:00,51.0,44.0,29.34,North,-999,-999.0,-999.0,75,-99.99,,,-99.99,,2013-04-14 23:00:00,
2013-04-15 00:42:00,51.0,44.0,29.34,North,-999,-999.0,-999.0,75,-99.99,,,-99.99,,2013-04-14 23:42:00,
2013-04-15 00:52:00,51.0,44.0,29.34,North,-999,-999.0,-999.0,75,-99.99,,,-99.99,,2013-04-14 23:52:00,
2013-04-15 01:00:00,50.0,45.0,29.36,North,-999,-999.0,-999.0,85,-99.99,,,-99.99,,2013-04-15 00:00:00,
2013-04-15 01:41:00,50.0,45.0,29.36,North,-999,-999.0,-999.0,85,-99.99,,,-99.99,,2013-04-15 00:41:00,
2013-04-15 01:52:00,50.0,45.0,29.36,North,-999,-999.0,-999.0,85,-99.99,,,-99.99,,2013-04-15 00:52:00,
2013-04-15 02:00:00,49.0,46.0,29.39,North,-999,-999.0,-999.0,87,-99.99,,,-99.99,,2013-04-15 01:00:00,
2013-04-15 02:41:00,49.0,46.0,29.39,North,-999,-999.0,-999.0,87,-99.99,,,-99.99,,2013-04-15 01:41:00,
2013-04-15 02:52:00,49.0,46.0,29.39,North,-999,-999.0,-999.0,87,-99.99,,,-99.99,,2013-04-15 01:52:00,
2013-04-15 05:00:00,49.0,43.0,29.50,North,-999,-999.0,-999.0,80,-99.99,,,-99.99,,2013-04-15 04:00:00,
2013-04-15 05:42:00,49.0,43.0,29.50,North,-999,-999.0,-999.0,80,-99.99,,,-99.99,,2013-04-15 04:42:00,
2013-04-15 05:52:00,49.0,43.0,29.50,North,-999,-999.0,-999.0,80,-99.99,,,-99.99,,2013-04-15 04:52:00,
2013-04-15 06:00:00,48.0,43.0,29.54,North,-999,-999.0,-999.0,82,-99.99,,,-99.99,,2013-04-15 05:00:00,
2013-04-15 06:42:00,48.0,43.0,29.54,North,-999,-999.0,-999.0,82,-99.99,,,-99.99,,2013-04-15 05:42:00,
2013-04-15 06:51:00,48.0,43.0,29.54,North,-999,-999.0,-999.0,82,-99.99,,,-99.99,,2013-04-15 05:51:00,
2013-04-15 07:00:00,48.0,42.0,29.57,North,-999,-999.0,-999.0,81,-99.99,,,-99.99,,2013-04-15 06:00:00,
2013-04-15 07:42:00,48.0,42.0,29.57,North,-999,-999.0,-999.0,81,-99.99,,,-99.99,,2013-04-15 06:42:00,
2013-04-15 07:51:00,48.0,42.0,29.57,North,-999,-999.0,-999.0,81,-99.99,,,-99.99,,2013-04-15 06:51:00,
2013-04-15 08:00:00,48.0,42.0,29.60,North,-999,-999.0,-999.0,80,-99.99,,,-99.99,,2013-04-15 07:00:00,
2013-04-15 08:41:00,48.0,42.0,29.60,North,-999,-999.0,-999.0,80,-99.99,,,-99.99,,2013-04-15 07:41:00,
2013-04-15 08:52:00,48.0,42.0,29.60,North,-999,-999.0,-999.0,80,-99.99,,,-99.99,,2013-04-15 07:52:00,
2013-04-15 09:00:00,48.0,41.0,29.62,North,-999,-999.0,-999.0,76,-99.99,,,-99.99,,2013-04-15 08:00:00,
2013-04-15 09:31:00,48.0,41.0,29.62,North,-999,-999.0,-999.0,76,-99.99,,,-99.99,,2013-04-15 08:31:00,
2013-04-15 09:42:00,48.0,41.0,29.62,North,-999,-999.0,-999.0,76,-99.99,,,-99.99,,2013-04-15 08:42:00,
2013-04-15 09:51:00,48.0,41.0,29.62,North,-999,-999.0,-999.0,76,-99.99,,,-99.99,,2013-04-15 08:51:00,
2013-04-15 10:00:00,50.0,41.0,29.65,North,-999,-999.0,-999.0,73,-99.99,,,-99.99,,2013-04-15 09:00:00,
2013-04-15 10:42:00,50.0,41.0,29.65,North,-999,-999.0,-999.0,73,-99.99,,,-99.99,,2013-04-15 09:42:00,
2013-04-15 10:52:00,50.0,41.0,29.65,North,-999,-999.0,-999.0,73,-99.99,,,-99.99,,2013-04-15 09:52:00,
2013-04-15 11:00:00,51.0,42.0,29.67,North,-999,-999.0,-999.0,70,-99.99,,,-99.99,,2013-04-15 10:00:00,
2013-04-15 11:42:00,51.0,42.0,29.67,North,-999,-999.0,-999.0,70,-99.99,,,-99.99,,2013-04-15 10:42:00,
2013-04-15 11:52:00,51.0,42.0,29.67,North,-999,-999.0,-999.0,70,-99.99,,,-99.99,,2013-04-15 10:52:00,
2013-04-15 12:00:00,52.0,40.0,29.70,North,-999,-999.0,-999.0,63,-99.99,,,-99.99,,2013-04-15 11:00:00,
2013-04-15 12:42:00,52.0,40.0,29.70,North,-999,-999.0,-999.0,63,-99.99,,,-99.99,,2013-04-15 11:42:00,
2013-04-15 12:52:00,52.0,40.0,29.70,North,-999,-999.0,-999.0,63,-99.99,,,-99.99,,2013-04-15 11:52:00,
2013-04-15 13:00:00,52.0,40.0,29.72,North,-999,-999.0,-999.0,62,-99.99,,,-99.99,,2013-04-15 12:00:00,
2013-04-15 13:42:00,52.0,40.0,29.72,North,-999,-999.0,-999.0,62,-99.99,,,-99.99,,2013-04-15 12:42:00,
2013-04-15 13:52:00,52.0,40.0,29.72,North,-999,-999.0,-999.0,62,-99.99,,,-99.99,,2013-04-15 12:52:00,
2013-04-15 14:00:00,54.0,40.0,29.73,North,-999,-999.0,-999.0,59,-99.99,,,-99.99,,2013-04-15 13:00:00,
2013-04-15 14:41:00,54.0,40.0,29.73,North,-999,-999.0,-999.0,59,-99.99,,,-99.99,,2013-04-15 13:41:00,
2013-04-15 14:52:00,54.0,40.0,29.73,North,-999,-999.0,-999.0,59,-99.99,,,-99.99,,2013-04-15 13:52:00,
2013-04-15 15:00:00,53.0,37.0,29.72,North,-999,-999.0,-999.0,54,-99.99,,,-99.99,,2013-04-15 14:00:00,
2013-04-15 15:42:00,53.0,37.0,29.72,North,-999,-999.0,-999.0,54,-99.99,,,-99.99,,2013-04-15 14:42:00,
2013-04-15 15:52:00,53.0,37.0,29.72,North,-999,-999.0,-999.0,54,-99.99,,,-99.99,,2013-04-15 14:52:00,
2013-04-15 16:00:00,51.0,36.0,29.70,North,-999,-999.0,-999.0,58,-99.99,,,-99.99,,2013-04-15 15:00:00,
2013-04-15 16:42:00,51.0,36.0,29.70,North,-999,-999.0,-999.0,58,-99.99,,,-99.99,,2013-04-15 15:42:00,
2013-04-15 16:53:00,51.0,36.0,29.70,North,-999,-999.0,-999.0,58,-99.99,,,-99.99,,2013-04-15 15:53:00,
2013-04-15 17:00:00,52.0,38.0,29.68,North,-999,-999.0,-999.0,59,-99.99,,,-99.99,,2013-04-15 16:00:00,
2013-04-15 17:42:00,52.0,38.0,29.68,North,-999,-999.0,-999.0,59,-99.99,,,-99.99,,2013-04-15 16:42:00,
2013-04-15 17:52:00,52.0,38.0,29.68,North,-999,-999.0,-999.0,59,-99.99,,,-99.99,,2013-04-15 16:52:00,
2013-04-15 18:42:00,47.0,40.0,29.65,North,-999,-999.0,-999.0,74,-99.99,,,-99.99,,2013-04-15 17:42:00,
2013-04-15 18:51:00,47.0,40.0,29.65,North,-999,-999.0,-999.0,74,-99.99,,,-99.99,,2013-04-15 17:51:00,
2013-04-15 19:00:00,47.0,41.0,29.62,North,-999,-999.0,-999.0,79,-99.99,,,-99.99,,2013-04-15 18:00:00,
2013-04-15 19:41:00,47.0,41.0,29.62,North,-999,-999.0,-999.0,79,-99.99,,,-99.99,,2013-04-15 18:41:00,
2013-04-15 19:51:00,47.0,41.0,29.62,North,-999,-999.0,-999.0,79,-99.99,,,-99.99,,2013-04-15 18:51:00,
2013-04-15 20:00:00,46.0,42.0,29.58,North,-999,-999.0,-999.0,84,-99.99,,,-99.99,,2013-04-15 19:00:00,
2013-04-15 20:42:00,46.0,42.0,29.58,North,-999,-999.0,-999.0,84,-99.99,,,-99.99,,2013-04-15 19:42:00,
2013-04-15 20:52:00,46.0,42.0,29.58,North,-999,-999.0,-999.0,84,-99.99,,,-99.99,,2013-04-15 19:52:00,
2013-04-15 21:00:00,46.0,42.0,29.54,North,-999,-999.0,-999.0,86,-99.99,,,-99.99,,2013-04-15 20:00:00,
2013-04-15 21:41:00,46.0,42.0,29.54,North,-999,-999.0,-999.0,86,-99.99,,,-99.99,,2013-04-15 20:41:00,
2013-04-15 21:51:00,46.0,42.0,29.54,North,-999,-999.0,-999.0,86,-99.99,,,-99.99,,2013-04-15 20:51:00,
2013-04-15 22:00:00,46.0,44.0,29.52,North,-999,-999.0,-999.0,93,-99.99,,,-99.99,,2013-04-15 21:00:00,
2013-04-15 22:32:00,46.0,44.0,29.52,North,-999,-999.0,-999.0,93,-99.99,,,-99.99,,2013-04-15 21:32:00,
2013-04-15 22:42:00,46.0,44.0,29.52,North,-999,-999.0,-999.0,93,-99.99,,,-99.99,,2013-04-15 21:42:00,
2013-04-15 22:52:00,46.0,44.0,29.52,North,-999,-999.0,-999.0,93,-99.99,,,-99.99,,2013-04-15 21:52:00,
2013-04-15 23:00:00,46.0,45.0,29.47,North,-999,-999.0,-999.0,95,-99.99,,,-99.99,,2013-04-15 22:00:00,
2013-04-15 23:42:00,46.0,45.0,29.47,North,-999,-999.0,-999.0,95,-99.99,,,-99.99,,2013-04-15 22:42:00,
2013-04-15 23:52:00,46.0,45.0,29.47,North,-999,-999.0,-999.0,95,-99.99,,,-99.99,,2013-04-15 22:52:00,